createdAt,value
2022-08-25T00:02:00.735Z,21.71
2022-08-25T00:04:30.523Z,21.69
2022-08-25T00:07:02.746Z,21.69
2022-08-25T00:09:30.378Z,21.66
2022-08-25T00:11:57.532Z,21.76
2022-08-25T00:14:28.374Z,21.76
2022-08-25T00:16:56.094Z,21.74
2022-08-25T00:19:29.991Z,21.71
2022-08-25T00:21:56.857Z,21.69
2022-08-25T00:24:24.488Z,21.68
2022-08-25T00:26:54.997Z,21.68
2022-08-25T00:29:23.437Z,21.61
2022-08-25T00:31:50.274Z,21.66
2022-08-25T00:34:23.890Z,21.66
2022-08-25T00:36:51.777Z,21.63
2022-08-25T00:39:21.174Z,21.62
2022-08-25T00:41:49.493Z,21.64
2022-08-25T00:44:19.796Z,21.67
2022-08-25T00:46:52.709Z,21.69
2022-08-25T00:49:28.972Z,21.68
2022-08-25T00:52:07.540Z,21.70
2022-08-25T00:54:45.945Z,21.76
2022-08-25T00:57:16.678Z,21.81
2022-08-25T00:59:44.492Z,21.82
2022-08-25T01:02:13.960Z,21.81
2022-08-25T01:04:48.811Z,21.78
2022-08-25T01:07:19.052Z,21.77
2022-08-25T01:09:49.885Z,21.77
2022-08-25T01:12:16.992Z,21.76
2022-08-25T01:14:46.689Z,21.71
2022-08-25T01:17:15.067Z,21.66
2022-08-25T01:19:42.794Z,21.66
2022-08-25T01:22:11.186Z,21.66
2022-08-25T01:24:59.470Z,21.66
2022-08-25T01:27:26.406Z,21.66
2022-08-25T01:29:53.324Z,21.66
2022-08-25T01:32:20.333Z,21.56
2022-08-25T01:34:47.254Z,21.53
2022-08-25T01:37:17.146Z,21.51
2022-08-25T01:39:44.752Z,21.50
2022-08-25T01:42:23.776Z,21.47
2022-08-25T01:44:50.820Z,21.43
2022-08-25T01:47:17.976Z,21.39
2022-08-25T01:49:45.509Z,21.36
2022-08-25T01:52:23.823Z,21.37
2022-08-25T01:54:50.778Z,21.35
2022-08-25T01:57:17.936Z,21.34
2022-08-25T01:59:45.326Z,21.27
2022-08-25T02:02:12.514Z,21.23
2022-08-25T02:04:40.683Z,21.16
2022-08-25T02:07:11.499Z,21.09
2022-08-25T02:09:39.486Z,21.06
2022-08-25T02:12:09.207Z,21.04
2022-08-25T02:14:37.049Z,21.06
2022-08-25T02:17:05.455Z,21.06
2022-08-25T02:19:32.856Z,21.03
2022-08-25T02:22:00.388Z,21.02
2022-08-25T02:24:27.374Z,20.97
2022-08-25T02:26:55.192Z,20.93
2022-08-25T02:29:22.058Z,20.93
2022-08-25T02:31:49.253Z,20.92
2022-08-25T02:34:16.419Z,20.93
2022-08-25T02:36:43.998Z,20.92
2022-08-25T02:39:12.792Z,20.92
2022-08-25T02:41:40.504Z,20.87
2022-08-25T02:44:08.558Z,20.82
2022-08-25T02:46:36.918Z,20.77
2022-08-25T02:49:05.654Z,20.73
2022-08-25T02:51:33.679Z,20.70
2022-08-25T02:54:02.394Z,20.66
2022-08-25T02:56:31.118Z,20.68
2022-08-25T02:58:58.696Z,20.68
2022-08-25T03:01:28.663Z,20.67
2022-08-25T03:03:56.831Z,20.65
2022-08-25T03:06:24.553Z,20.55
2022-08-25T03:08:52.605Z,20.52
2022-08-25T03:11:20.253Z,20.49
2022-08-25T03:13:49.746Z,20.47
2022-08-25T03:16:16.689Z,20.48
2022-08-25T03:18:44.992Z,20.47
2022-08-25T03:21:12.572Z,20.46
2022-08-25T03:23:41.274Z,20.45
2022-08-25T03:26:27.080Z,20.44
2022-08-25T03:28:57.213Z,20.44
2022-08-25T03:31:26.903Z,20.42
2022-08-25T03:33:54.309Z,20.45
2022-08-25T03:36:21.188Z,20.43
2022-08-25T03:38:48.235Z,20.41
2022-08-25T03:41:23.985Z,20.39
2022-08-25T03:43:55.850Z,20.36
2022-08-25T03:46:25.932Z,20.32
2022-08-25T03:48:53.736Z,20.33
2022-08-25T03:51:26.981Z,20.32
2022-08-25T03:53:54.250Z,20.30
2022-08-25T03:56:21.146Z,20.24
2022-08-25T03:58:48.969Z,20.22
2022-08-25T04:01:16.719Z,20.22
2022-08-25T04:03:45.469Z,20.22
2022-08-25T04:06:12.902Z,20.24
2022-08-25T04:08:40.086Z,20.22
2022-08-25T04:11:16.147Z,20.22
2022-08-25T04:13:45.254Z,20.20
2022-08-25T04:16:14.819Z,20.17
2022-08-25T04:18:43.726Z,20.16
2022-08-25T04:21:12.148Z,20.18
2022-08-25T04:23:41.163Z,20.18
2022-08-25T04:26:19.442Z,20.17
2022-08-25T04:28:46.998Z,20.16
2022-08-25T04:31:16.225Z,20.18
2022-08-25T04:33:44.068Z,20.16
2022-08-25T04:36:14.375Z,20.17
2022-08-25T04:38:43.018Z,20.22
2022-08-25T04:41:12.073Z,20.23
2022-08-25T04:43:41.667Z,20.27
2022-08-25T04:46:24.008Z,20.30
2022-08-25T04:48:53.087Z,20.32
2022-08-25T04:51:23.538Z,20.34
2022-08-25T04:53:51.437Z,20.34
2022-08-25T04:56:20.563Z,20.39
2022-08-25T04:58:47.615Z,20.42
2022-08-25T05:01:17.604Z,20.47
2022-08-25T05:03:46.464Z,20.50
2022-08-25T05:06:16.295Z,20.53
2022-08-25T05:08:45.992Z,20.55
2022-08-25T05:11:16.629Z,20.55
2022-08-25T05:13:51.510Z,20.58
2022-08-25T05:16:20.256Z,20.64
2022-08-25T05:18:47.572Z,20.67
2022-08-25T05:21:20.187Z,20.69
2022-08-25T05:23:48.078Z,20.73
2022-08-25T05:26:21.141Z,20.75
2022-08-25T05:28:52.285Z,20.79
2022-08-25T05:31:20.113Z,20.84
2022-08-25T05:33:47.187Z,20.92
2022-08-25T05:36:15.950Z,20.98
2022-08-25T05:38:42.930Z,21.02
2022-08-25T05:41:15.773Z,21.06
2022-08-25T05:43:45.716Z,21.09
2022-08-25T05:46:13.338Z,21.16
2022-08-25T05:48:40.596Z,21.24
2022-08-25T05:51:10.394Z,21.30
2022-08-25T05:53:39.966Z,21.39
2022-08-25T05:56:07.031Z,21.47
2022-08-25T05:58:34.587Z,21.52
2022-08-25T06:01:20.165Z,21.56
2022-08-25T06:03:47.896Z,21.64
2022-08-25T06:06:16.135Z,21.70
2022-08-25T06:08:44.452Z,21.74
2022-08-25T06:11:13.593Z,21.77
2022-08-25T06:13:40.953Z,21.81
2022-08-25T06:16:08.051Z,21.88
2022-08-25T06:18:35.058Z,21.96
2022-08-25T06:21:10.888Z,22.06
2022-08-25T06:23:38.454Z,22.16
2022-08-25T06:26:05.693Z,22.25
2022-08-25T06:28:32.615Z,22.31
2022-08-25T06:31:01.600Z,22.39
2022-08-25T06:33:28.810Z,22.48
2022-08-25T06:35:56.981Z,22.52
2022-08-25T06:38:24.700Z,22.61
2022-08-25T06:40:52.459Z,22.67
2022-08-25T06:43:20.492Z,22.75
2022-08-25T06:45:49.497Z,22.87
2022-08-25T06:48:16.637Z,22.92
2022-08-25T06:50:44.826Z,23.00
2022-08-25T06:53:11.880Z,23.09
2022-08-25T06:55:39.392Z,23.14
2022-08-25T06:58:06.799Z,23.21
2022-08-25T07:00:38.503Z,23.33
2022-08-25T07:03:05.466Z,23.40
2022-08-25T07:05:43.536Z,23.47
2022-08-25T07:08:11.980Z,23.52
2022-08-25T07:10:39.678Z,23.54
2022-08-25T07:13:06.490Z,23.61
2022-08-25T07:15:39.360Z,23.69
2022-08-25T07:18:07.661Z,23.79
2022-08-25T07:20:35.857Z,23.89
2022-08-25T07:23:03.118Z,23.98
2022-08-25T07:25:30.037Z,24.07
2022-08-25T07:27:59.045Z,24.11
2022-08-25T07:30:26.435Z,24.15
2022-08-25T07:32:55.117Z,24.23
2022-08-25T07:35:26.307Z,24.30
2022-08-25T07:37:59.307Z,24.36
2022-08-25T07:40:29.912Z,24.40
2022-08-25T07:43:00.044Z,24.52
2022-08-25T07:45:32.550Z,24.61
2022-08-25T07:48:06.385Z,24.65
2022-08-25T07:50:34.247Z,24.71
2022-08-25T07:53:01.106Z,24.86
2022-08-25T07:55:30.605Z,25.01
2022-08-25T07:57:59.831Z,25.10
2022-08-25T08:00:29.985Z,25.20
2022-08-25T08:02:57.699Z,25.32
2022-08-25T08:05:25.945Z,25.46
2022-08-25T08:07:54.208Z,25.55
2022-08-25T08:13:10.412Z,25.79
2022-08-25T08:15:38.340Z,25.94
2022-08-25T08:18:07.351Z,26.00
2022-08-25T08:20:42.291Z,26.09
2022-08-25T08:23:09.837Z,26.15
2022-08-25T08:25:36.772Z,26.25
2022-08-25T08:28:03.800Z,26.41
2022-08-25T08:30:36.788Z,26.49
2022-08-25T08:33:10.176Z,26.53
2022-08-25T08:35:41.271Z,26.56
2022-08-25T08:38:14.772Z,26.65
2022-08-25T08:42:09.646Z,26.79
2022-08-25T08:44:42.121Z,26.92
2022-08-25T08:47:30.706Z,27.06
2022-08-25T08:50:21.618Z,27.14
2022-08-25T08:53:15.024Z,27.27
2022-08-25T08:55:48.347Z,27.40
2022-08-25T08:58:26.215Z,27.57
2022-08-25T09:00:56.504Z,27.65
2022-08-25T09:03:39.936Z,27.74
2022-08-25T09:06:13.184Z,27.90
2022-08-25T09:08:44.986Z,28.02
2022-08-25T09:11:21.112Z,28.07
2022-08-25T09:14:13.109Z,28.22
2022-08-25T09:17:16.579Z,28.40
2022-08-25T09:20:06.093Z,28.47
2022-08-25T09:23:07.515Z,28.64
2022-08-25T09:25:53.427Z,28.74
2022-08-25T09:29:03.306Z,28.91
2022-08-25T09:31:36.470Z,28.97
2022-08-25T09:34:14.394Z,28.98
2022-08-25T09:36:41.483Z,29.08
2022-08-25T09:39:09.926Z,29.21
2022-08-25T09:41:56.516Z,29.30
2022-08-25T09:44:27.708Z,29.37
2022-08-25T09:46:57.429Z,29.41
2022-08-25T09:49:41.043Z,29.57
2022-08-25T09:52:34.089Z,29.59
2022-08-25T09:55:09.574Z,29.81
2022-08-25T09:57:43.681Z,29.90
2022-08-25T10:00:18.532Z,29.91
2022-08-25T10:03:09.935Z,29.92
2022-08-25T10:05:46.111Z,29.98
2022-08-25T10:08:34.102Z,30.10
2022-08-25T10:11:05.124Z,30.13
2022-08-25T10:13:48.807Z,30.14
2022-08-25T10:16:36.031Z,30.23
2022-08-25T10:19:23.732Z,30.24
2022-08-25T10:22:11.247Z,30.36
2022-08-25T10:24:43.699Z,30.43
2022-08-25T10:27:30.052Z,30.55
2022-08-25T10:30:12.819Z,30.51
2022-08-25T10:32:58.743Z,30.51
2022-08-25T10:35:34.760Z,30.54
2022-08-25T10:38:21.821Z,30.49
2022-08-25T10:41:28.384Z,30.57
2022-08-25T10:44:45.155Z,30.61
2022-08-25T10:47:52.879Z,30.66
2022-08-25T10:51:01.184Z,30.95
2022-08-25T10:53:37.046Z,31.02
2022-08-25T10:56:40.227Z,30.94
2022-08-25T10:59:13.047Z,30.92
2022-08-25T11:02:04.568Z,30.97
2022-08-25T11:04:44.149Z,31.02
2022-08-25T11:07:28.353Z,31.24
2022-08-25T11:10:03.051Z,31.28
2022-08-25T11:12:34.625Z,31.31
2022-08-25T11:15:11.372Z,31.51
2022-08-25T11:18:20.310Z,31.59
2022-08-25T11:20:52.504Z,31.58
2022-08-25T11:23:28.577Z,31.56
2022-08-25T11:26:04.480Z,31.55
2022-08-25T11:28:34.893Z,31.60
2022-08-25T11:31:04.259Z,31.60
2022-08-25T11:33:33.846Z,31.62
2022-08-25T11:36:06.943Z,31.65
2022-08-25T11:38:54.584Z,31.77
2022-08-25T11:41:29.478Z,31.87
2022-08-25T11:44:34.771Z,31.88
2022-08-25T11:47:54.767Z,31.94
2022-08-25T11:50:35.676Z,32.12
2022-08-25T11:53:26.674Z,32.25
2022-08-25T11:56:04.373Z,32.23
2022-08-25T11:58:41.937Z,32.23
2022-08-25T12:01:12.749Z,32.25
2022-08-25T12:03:39.589Z,32.30
2022-08-25T12:06:32.056Z,32.31
2022-08-25T12:09:03.069Z,32.48
2022-08-25T12:11:42.549Z,32.58
2022-08-25T12:14:28.193Z,32.63
2022-08-25T12:16:55.744Z,32.63
2022-08-25T12:19:25.363Z,32.61
2022-08-25T12:22:14.183Z,32.58
2022-08-25T12:24:47.756Z,32.63
2022-08-25T12:27:39.082Z,32.53
2022-08-25T12:30:21.515Z,32.59
2022-08-25T12:33:05.547Z,32.70
2022-08-25T12:35:37.300Z,32.72
2022-08-25T12:38:16.837Z,32.74
2022-08-25T12:40:45.455Z,33.04
2022-08-25T12:43:37.803Z,33.16
2022-08-25T12:46:27.581Z,33.27
2022-08-25T12:49:11.585Z,33.27
2022-08-25T12:51:39.793Z,33.30
2022-08-25T12:54:19.073Z,33.26
2022-08-25T12:56:59.315Z,33.31
2022-08-25T12:59:38.326Z,33.44
2022-08-25T13:02:39.953Z,33.48
2022-08-25T13:05:37.156Z,33.32
2022-08-25T13:08:19.431Z,33.33
2022-08-25T13:10:56.112Z,33.37
2022-08-25T13:13:39.057Z,33.48
2022-08-25T13:16:09.630Z,33.59
2022-08-25T13:18:39.005Z,33.68
2022-08-25T13:21:15.940Z,33.69
2022-08-25T13:23:45.919Z,33.69
2022-08-25T13:26:26.543Z,33.69
2022-08-25T13:29:12.705Z,33.54
2022-08-25T13:32:14.404Z,33.57
2022-08-25T13:34:44.005Z,33.54
2022-08-25T13:37:29.674Z,33.44
2022-08-25T13:40:10.180Z,33.44
2022-08-25T13:42:44.347Z,33.48
2022-08-25T13:45:18.898Z,33.51
2022-08-25T13:47:48.484Z,33.62
2022-08-25T13:50:35.400Z,33.55
2022-08-25T13:53:05.861Z,33.70
2022-08-25T13:55:51.459Z,33.79
2022-08-25T13:58:24.327Z,33.86
2022-08-25T14:01:00.694Z,34.02
2022-08-25T14:03:35.213Z,34.07
2022-08-25T14:06:07.335Z,34.09
2022-08-25T14:08:41.543Z,33.97
2022-08-25T14:11:15.712Z,33.84
2022-08-25T14:13:45.824Z,33.89
2022-08-25T14:16:19.496Z,33.94
2022-08-25T14:18:50.484Z,34.00
2022-08-25T14:21:27.720Z,33.90
2022-08-25T14:23:56.414Z,33.89
2022-08-25T14:26:23.855Z,33.89
2022-08-25T14:28:53.667Z,33.91
2022-08-25T14:31:27.819Z,33.96
2022-08-25T14:33:59.185Z,33.93
2022-08-25T14:36:29.773Z,33.97
2022-08-25T14:38:57.942Z,33.95
2022-08-25T14:41:26.599Z,33.96
2022-08-25T14:43:53.658Z,33.95
2022-08-25T14:46:24.761Z,33.99
2022-08-25T14:48:56.851Z,34.01
2022-08-25T14:51:25.900Z,33.95
2022-08-25T14:53:58.164Z,33.99
2022-08-25T14:56:25.518Z,34.01
2022-08-25T14:58:56.732Z,33.99
2022-08-25T15:01:28.707Z,34.00
2022-08-25T15:04:19.182Z,33.98
2022-08-25T15:06:46.939Z,33.95
2022-08-25T15:09:16.646Z,33.90
2022-08-25T15:11:52.713Z,33.84
2022-08-25T15:14:28.393Z,33.93
2022-08-25T15:16:57.610Z,33.94
2022-08-25T15:19:27.087Z,33.97
2022-08-25T15:21:58.034Z,34.03
2022-08-25T15:24:27.271Z,34.12
2022-08-25T15:26:57.419Z,34.11
2022-08-25T15:29:27.624Z,34.04
2022-08-25T15:31:54.790Z,33.95
2022-08-25T15:34:22.501Z,33.92
2022-08-25T15:36:49.603Z,33.95
2022-08-25T15:39:17.961Z,33.93
2022-08-25T15:41:49.447Z,33.85
2022-08-25T15:44:16.934Z,33.77
2022-08-25T15:46:46.951Z,33.80
2022-08-25T15:49:15.091Z,33.83
2022-08-25T15:51:47.956Z,33.82
2022-08-25T15:54:15.778Z,33.85
2022-08-25T15:56:44.184Z,33.89
2022-08-25T15:59:13.855Z,33.86
2022-08-25T16:01:41.995Z,33.79
2022-08-25T16:04:10.098Z,33.82
2022-08-25T16:06:38.292Z,33.78
2022-08-25T16:09:08.135Z,33.66
2022-08-25T16:11:35.283Z,33.65
2022-08-25T16:14:05.902Z,33.71
2022-08-25T16:16:33.598Z,33.70
2022-08-25T16:19:01.797Z,33.64
2022-08-25T16:21:33.102Z,33.60
2022-08-25T16:24:05.465Z,33.57
2022-08-25T16:26:38.180Z,33.46
2022-08-25T16:29:16.466Z,33.41
2022-08-25T16:31:45.120Z,33.33
2022-08-25T16:34:20.121Z,33.25
2022-08-25T16:36:47.307Z,33.18
2022-08-25T16:39:19.588Z,33.09
2022-08-25T16:41:49.309Z,33.12
2022-08-25T16:44:19.394Z,33.06
2022-08-25T16:46:54.024Z,32.94
2022-08-25T16:49:24.363Z,32.89
2022-08-25T16:51:57.182Z,32.81
2022-08-25T16:54:45.160Z,32.59
2022-08-25T16:57:13.021Z,32.43
2022-08-25T16:59:40.175Z,32.28
2022-08-25T17:02:07.372Z,32.09
2022-08-25T17:04:34.302Z,31.87
2022-08-25T17:07:01.981Z,31.57
2022-08-25T17:09:29.741Z,31.30
2022-08-25T17:11:57.343Z,31.13
2022-08-25T17:14:25.221Z,30.92
2022-08-25T17:16:55.371Z,30.85
2022-08-25T17:19:25.022Z,30.71
2022-08-25T17:21:53.802Z,30.61
2022-08-25T17:24:21.109Z,30.50
2022-08-25T17:26:51.053Z,30.43
2022-08-25T17:29:18.460Z,30.37
2022-08-25T17:31:48.532Z,30.30
2022-08-25T17:34:16.760Z,30.25
2022-08-25T17:36:47.539Z,30.14
2022-08-25T17:39:18.199Z,30.04
2022-08-25T17:41:45.654Z,29.97
2022-08-25T17:44:14.109Z,29.88
2022-08-25T17:46:47.624Z,29.78
2022-08-25T17:49:15.855Z,29.65
2022-08-25T17:51:42.886Z,29.56
2022-08-25T17:54:10.059Z,29.42
2022-08-25T17:56:38.111Z,29.25
2022-08-25T17:59:06.176Z,29.14
2022-08-25T18:01:40.482Z,29.01
2022-08-25T18:04:17.181Z,28.85
2022-08-25T18:06:46.641Z,28.64
2022-08-25T18:09:14.755Z,28.48
2022-08-25T18:11:42.752Z,28.30
2022-08-25T18:14:11.474Z,28.17
2022-08-25T18:16:39.381Z,28.01
2022-08-25T18:19:09.789Z,27.85
2022-08-25T18:21:36.947Z,27.71
2022-08-25T18:24:04.986Z,27.61
2022-08-25T18:26:32.765Z,27.47
2022-08-25T18:28:59.699Z,27.35
2022-08-25T18:31:26.794Z,27.26
2022-08-25T18:33:53.929Z,27.14
2022-08-25T18:36:21.321Z,27.03
2022-08-25T18:39:07.845Z,26.90
2022-08-25T18:41:38.598Z,26.80
2022-08-25T18:44:07.611Z,26.70
2022-08-25T18:46:35.420Z,26.66
2022-08-25T18:49:03.474Z,26.51
2022-08-25T18:51:32.810Z,26.38
2022-08-25T18:54:01.446Z,26.32
2022-08-25T18:56:29.349Z,26.21
2022-08-25T18:58:57.721Z,26.14
2022-08-25T19:01:25.287Z,26.06
2022-08-25T19:03:52.573Z,26.03
2022-08-25T19:06:20.886Z,25.95
2022-08-25T19:08:48.641Z,25.85
2022-08-25T19:11:17.280Z,25.76
2022-08-25T19:13:49.606Z,25.69
2022-08-25T19:16:38.383Z,25.63
2022-08-25T19:19:07.539Z,25.55
2022-08-25T19:21:35.678Z,25.53
2022-08-25T19:24:03.455Z,25.49
2022-08-25T19:26:31.776Z,25.44
2022-08-25T19:28:59.241Z,25.49
2022-08-25T19:31:27.797Z,25.45
2022-08-25T19:34:01.572Z,25.44
2022-08-25T19:36:30.570Z,25.33
2022-08-25T19:39:01.613Z,25.22
2022-08-25T19:41:31.487Z,25.13
2022-08-25T19:43:59.519Z,25.00
2022-08-25T19:46:33.040Z,24.81
2022-08-25T19:49:08.037Z,24.59
2022-08-25T19:51:44.091Z,24.46
2022-08-25T19:54:15.655Z,24.51
2022-08-25T19:56:54.397Z,24.61
2022-08-25T19:59:25.816Z,24.69
2022-08-25T20:01:54.119Z,24.68
2022-08-25T20:04:21.136Z,24.64
2022-08-25T20:06:52.098Z,24.61
2022-08-25T20:09:35.982Z,24.57
2022-08-25T20:12:07.259Z,24.52
2022-08-25T20:14:35.149Z,24.50
2022-08-25T20:17:02.808Z,24.46
2022-08-25T20:19:31.240Z,24.42
2022-08-25T20:21:59.054Z,24.38
2022-08-25T20:24:44.653Z,24.33
2022-08-25T20:27:12.289Z,24.29
2022-08-25T20:29:39.578Z,24.22
2022-08-25T20:32:11.934Z,24.16
2022-08-25T20:34:39.796Z,24.12
2022-08-25T20:37:07.781Z,24.07
2022-08-25T20:39:35.045Z,24.04
2022-08-25T20:42:03.745Z,24.03
2022-08-25T20:44:33.814Z,24.00
2022-08-25T20:47:03.382Z,24.01
2022-08-25T20:49:37.659Z,23.94
2022-08-25T20:52:05.615Z,23.88
2022-08-25T20:54:34.018Z,23.84
2022-08-25T20:57:02.575Z,23.78
2022-08-25T20:59:29.810Z,23.74
2022-08-25T21:01:58.418Z,23.66
2022-08-25T21:04:29.360Z,23.60
2022-08-25T21:06:58.245Z,23.57
2022-08-25T21:09:27.385Z,23.54
2022-08-25T21:11:55.943Z,23.51
2022-08-25T21:14:25.234Z,23.49
2022-08-25T21:16:54.119Z,23.47
2022-08-25T21:19:26.252Z,23.46
2022-08-25T21:21:59.602Z,23.47
2022-08-25T21:24:28.516Z,23.41
2022-08-25T21:26:57.789Z,23.40
2022-08-25T21:29:28.372Z,23.33
2022-08-25T21:31:58.810Z,23.34
2022-08-25T21:34:28.836Z,23.27
2022-08-25T21:36:58.183Z,23.24
2022-08-25T21:39:28.237Z,23.21
2022-08-25T21:41:58.585Z,23.16
2022-08-25T21:44:27.533Z,23.19
2022-08-25T21:46:55.055Z,23.22
2022-08-25T21:49:24.255Z,23.22
2022-08-25T21:52:00.600Z,23.22
2022-08-25T21:54:29.329Z,23.07
2022-08-25T21:56:59.922Z,22.99
2022-08-25T21:59:36.127Z,23.00
2022-08-25T22:02:07.818Z,22.97
2022-08-25T22:04:38.925Z,22.94
2022-08-25T22:07:07.008Z,22.92
2022-08-25T22:09:34.127Z,22.93
2022-08-25T22:12:01.306Z,22.92
2022-08-25T22:14:28.273Z,22.91
2022-08-25T22:16:55.732Z,22.89
2022-08-25T22:19:23.563Z,22.88
2022-08-25T22:21:52.833Z,22.87
2022-08-25T22:24:20.882Z,22.84
2022-08-25T22:26:49.267Z,22.84
2022-08-25T22:29:24.949Z,22.88
2022-08-25T22:31:59.484Z,22.86
2022-08-25T22:34:32.624Z,22.83
2022-08-25T22:37:04.598Z,22.85
2022-08-25T22:39:34.229Z,22.77
2022-08-25T22:42:02.093Z,22.74
2022-08-25T22:44:29.321Z,22.73
2022-08-25T22:46:56.265Z,22.68
2022-08-25T22:49:23.738Z,22.62
2022-08-25T22:51:51.055Z,22.54
2022-08-25T22:54:20.607Z,22.52
2022-08-25T22:56:48.395Z,22.49
2022-08-25T22:59:15.519Z,22.50
2022-08-25T23:01:44.429Z,22.52
2022-08-25T23:04:12.152Z,22.51
2022-08-25T23:06:39.814Z,22.48
2022-08-25T23:09:08.341Z,22.50
2022-08-25T23:11:38.633Z,22.52
2022-08-25T23:14:10.237Z,22.55
2022-08-25T23:16:38.971Z,22.57
2022-08-25T23:19:06.333Z,22.56
2022-08-25T23:21:53.061Z,22.57
2022-08-25T23:24:29.398Z,22.60
2022-08-25T23:27:02.189Z,22.58
2022-08-25T23:29:31.711Z,22.60
2022-08-25T23:31:59.150Z,22.59
2022-08-25T23:34:26.835Z,22.60
2022-08-25T23:36:56.475Z,22.61
2022-08-25T23:39:23.304Z,22.59
2022-08-25T23:41:51.740Z,22.63
2022-08-25T23:44:21.288Z,22.65
2022-08-25T23:46:48.710Z,22.65
2022-08-25T23:49:18.447Z,22.60
2022-08-25T23:51:51.726Z,22.56
2022-08-25T23:54:21.192Z,22.55
2022-08-25T23:56:52.303Z,22.53
2022-08-25T23:59:24.480Z,22.52
